sensor_id;sensor_type;location;lat;lon;timestamp;temperature;humidity
8178;DHT22;4130;48.740;9.132;2022-11-03T00:00:32;5.30;99.90
8178;DHT22;4130;48.740;9.132;2022-11-03T00:02:59;5.30;99.90
8178;DHT22;4130;48.740;9.132;2022-11-03T00:05:25;5.30;99.90
8178;DHT22;4130;48.740;9.132;2022-11-03T00:08:24;5.30;99.90
8178;DHT22;4130;48.740;9.132;2022-11-03T00:10:52;5.30;99.90
8178;DHT22;4130;48.740;9.132;2022-11-03T00:13:19;5.30;99.90
8178;DHT22;4130;48.740;9.132;2022-11-03T00:15:49;5.30;99.90
8178;DHT22;4130;48.740;9.132;2022-11-03T00:18:15;5.30;99.90
8178;DHT22;4130;48.740;9.132;2022-11-03T00:20:42;5.20;99.90
8178;DHT22;4130;48.740;9.132;2022-11-03T00:23:09;5.20;99.90
8178;DHT22;4130;48.740;9.132;2022-11-03T00:25:35;5.20;99.90
8178;DHT22;4130;48.740;9.132;2022-11-03T00:28:03;5.20;99.90
8178;DHT22;4130;48.740;9.132;2022-11-03T00:30:30;5.20;99.90
8178;DHT22;4130;48.740;9.132;2022-11-03T00:32:57;5.20;99.90
8178;DHT22;4130;48.740;9.132;2022-11-03T00:35:24;5.20;99.90
8178;DHT22;4130;48.740;9.132;2022-11-03T00:37:51;5.10;99.90
8178;DHT22;4130;48.740;9.132;2022-11-03T00:40:17;5.10;99.90
8178;DHT22;4130;48.740;9.132;2022-11-03T00:42:45;5.00;99.90
8178;DHT22;4130;48.740;9.132;2022-11-03T00:45:13;5.00;99.90
8178;DHT22;4130;48.740;9.132;2022-11-03T00:47:40;4.90;99.90
8178;DHT22;4130;48.740;9.132;2022-11-03T00:50:26;4.80;99.90
8178;DHT22;4130;48.740;9.132;2022-11-03T00:52:53;4.80;99.90
8178;DHT22;4130;48.740;9.132;2022-11-03T00:55:20;4.80;99.90
8178;DHT22;4130;48.740;9.132;2022-11-03T00:57:46;4.70;99.90
8178;DHT22;4130;48.740;9.132;2022-11-03T01:00:15;4.70;99.90
8178;DHT22;4130;48.740;9.132;2022-11-03T01:02:41;4.70;99.90
8178;DHT22;4130;48.740;9.132;2022-11-03T01:05:08;4.70;99.90
8178;DHT22;4130;48.740;9.132;2022-11-03T01:07:53;4.70;99.90
8178;DHT22;4130;48.740;9.132;2022-11-03T01:10:19;4.60;99.90
8178;DHT22;4130;48.740;9.132;2022-11-03T01:12:46;4.60;99.90
8178;DHT22;4130;48.740;9.132;2022-11-03T01:15:14;4.70;99.90
8178;DHT22;4130;48.740;9.132;2022-11-03T01:17:41;4.70;99.90
8178;DHT22;4130;48.740;9.132;2022-11-03T01:20:08;4.60;99.90
8178;DHT22;4130;48.740;9.132;2022-11-03T01:22:35;4.70;99.90
8178;DHT22;4130;48.740;9.132;2022-11-03T01:25:02;4.70;99.90
8178;DHT22;4130;48.740;9.132;2022-11-03T01:27:28;4.70;99.90
8178;DHT22;4130;48.740;9.132;2022-11-03T01:29:55;4.70;99.90
8178;DHT22;4130;48.740;9.132;2022-11-03T01:32:23;4.60;99.90
8178;DHT22;4130;48.740;9.132;2022-11-03T01:34:50;4.60;99.90
8178;DHT22;4130;48.740;9.132;2022-11-03T01:37:16;4.50;99.90
8178;DHT22;4130;48.740;9.132;2022-11-03T01:39:43;4.40;99.90
8178;DHT22;4130;48.740;9.132;2022-11-03T01:42:10;4.30;99.90
8178;DHT22;4130;48.740;9.132;2022-11-03T01:44:41;4.30;99.90
8178;DHT22;4130;48.740;9.132;2022-11-03T01:47:13;4.30;99.90
8178;DHT22;4130;48.740;9.132;2022-11-03T01:49:46;4.30;99.90
8178;DHT22;4130;48.740;9.132;2022-11-03T01:52:17;4.30;99.90
8178;DHT22;4130;48.740;9.132;2022-11-03T01:54:49;4.20;99.90
8178;DHT22;4130;48.740;9.132;2022-11-03T01:57:23;4.10;99.90
8178;DHT22;4130;48.740;9.132;2022-11-03T01:59:52;4.10;99.90
8178;DHT22;4130;48.740;9.132;2022-11-03T02:02:20;4.10;99.90
8178;DHT22;4130;48.740;9.132;2022-11-03T02:04:48;4.20;99.90
8178;DHT22;4130;48.740;9.132;2022-11-03T02:07:21;4.20;99.90
8178;DHT22;4130;48.740;9.132;2022-11-03T02:09:50;4.20;99.90
8178;DHT22;4130;48.740;9.132;2022-11-03T02:12:19;4.20;99.90
8178;DHT22;4130;48.740;9.132;2022-11-03T02:14:50;4.20;99.90
8178;DHT22;4130;48.740;9.132;2022-11-03T02:17:18;4.20;99.90
8178;DHT22;4130;48.740;9.132;2022-11-03T02:19:50;4.20;99.90
8178;DHT22;4130;48.740;9.132;2022-11-03T02:22:40;4.10;99.90
8178;DHT22;4130;48.740;9.132;2022-11-03T02:25:15;4.10;99.90
8178;DHT22;4130;48.740;9.132;2022-11-03T02:27:44;4.10;99.90
8178;DHT22;4130;48.740;9.132;2022-11-03T02:30:11;4.10;99.90
8178;DHT22;4130;48.740;9.132;2022-11-03T02:32:44;4.10;99.90
8178;DHT22;4130;48.740;9.132;2022-11-03T02:35:19;4.00;99.90
8178;DHT22;4130;48.740;9.132;2022-11-03T02:37:49;4.00;99.90
8178;DHT22;4130;48.740;9.132;2022-11-03T02:40:20;3.90;99.90
8178;DHT22;4130;48.740;9.132;2022-11-03T02:42:51;3.90;99.90
8178;DHT22;4130;48.740;9.132;2022-11-03T02:45:21;4.00;99.90
8178;DHT22;4130;48.740;9.132;2022-11-03T02:47:49;3.90;99.90
8178;DHT22;4130;48.740;9.132;2022-11-03T02:50:17;3.90;99.90
8178;DHT22;4130;48.740;9.132;2022-11-03T02:52:47;3.80;99.90
8178;DHT22;4130;48.740;9.132;2022-11-03T02:55:22;3.80;99.90
8178;DHT22;4130;48.740;9.132;2022-11-03T02:57:58;3.80;99.90
8178;DHT22;4130;48.740;9.132;2022-11-03T03:00:27;3.80;99.90
8178;DHT22;4130;48.740;9.132;2022-11-03T03:03:00;3.90;99.90
8178;DHT22;4130;48.740;9.132;2022-11-03T03:05:31;3.80;99.90
8178;DHT22;4130;48.740;9.132;2022-11-03T03:08:01;3.80;99.90
8178;DHT22;4130;48.740;9.132;2022-11-03T03:10:32;3.80;99.90
8178;DHT22;4130;48.740;9.132;2022-11-03T03:13:05;3.80;99.90
8178;DHT22;4130;48.740;9.132;2022-11-03T03:15:40;3.90;99.90
8178;DHT22;4130;48.740;9.132;2022-11-03T03:18:15;3.90;99.90
8178;DHT22;4130;48.740;9.132;2022-11-03T03:20:50;3.90;99.90
8178;DHT22;4130;48.740;9.132;2022-11-03T03:23:21;4.00;99.90
8178;DHT22;4130;48.740;9.132;2022-11-03T03:25:51;3.90;99.90
8178;DHT22;4130;48.740;9.132;2022-11-03T03:28:24;3.90;99.90
8178;DHT22;4130;48.740;9.132;2022-11-03T03:30:53;3.90;99.90
8178;DHT22;4130;48.740;9.132;2022-11-03T03:33:22;4.00;99.90
8178;DHT22;4130;48.740;9.132;2022-11-03T03:35:50;4.00;99.90
8178;DHT22;4130;48.740;9.132;2022-11-03T03:38:21;4.00;99.90
8178;DHT22;4130;48.740;9.132;2022-11-03T03:40:51;4.00;99.90
8178;DHT22;4130;48.740;9.132;2022-11-03T03:43:21;4.00;99.90
8178;DHT22;4130;48.740;9.132;2022-11-03T03:45:50;4.00;99.90
8178;DHT22;4130;48.740;9.132;2022-11-03T03:48:18;4.00;99.90
8178;DHT22;4130;48.740;9.132;2022-11-03T03:50:46;4.00;99.90
8178;DHT22;4130;48.740;9.132;2022-11-03T03:53:14;4.10;99.90
8178;DHT22;4130;48.740;9.132;2022-11-03T03:55:43;4.20;99.90
8178;DHT22;4130;48.740;9.132;2022-11-03T03:58:12;4.20;99.90
8178;DHT22;4130;48.740;9.132;2022-11-03T04:00:41;4.30;99.90
8178;DHT22;4130;48.740;9.132;2022-11-03T04:03:13;4.50;99.90
8178;DHT22;4130;48.740;9.132;2022-11-03T04:05:41;4.50;99.90
8178;DHT22;4130;48.740;9.132;2022-11-03T04:08:09;4.40;99.90
8178;DHT22;4130;48.740;9.132;2022-11-03T04:10:35;4.40;99.90
8178;DHT22;4130;48.740;9.132;2022-11-03T04:13:02;4.30;99.90
8178;DHT22;4130;48.740;9.132;2022-11-03T04:15:48;4.30;99.90
8178;DHT22;4130;48.740;9.132;2022-11-03T04:18:32;4.30;99.90
8178;DHT22;4130;48.740;9.132;2022-11-03T04:21:31;4.20;99.90
8178;DHT22;4130;48.740;9.132;2022-11-03T04:24:15;4.10;99.90
8178;DHT22;4130;48.740;9.132;2022-11-03T04:26:42;4.10;99.90
8178;DHT22;4130;48.740;9.132;2022-11-03T04:29:09;4.20;99.90
8178;DHT22;4130;48.740;9.132;2022-11-03T04:31:37;4.20;99.90
8178;DHT22;4130;48.740;9.132;2022-11-03T04:34:09;4.20;99.90
8178;DHT22;4130;48.740;9.132;2022-11-03T04:36:37;4.10;99.90
8178;DHT22;4130;48.740;9.132;2022-11-03T04:39:14;4.10;99.90
8178;DHT22;4130;48.740;9.132;2022-11-03T04:41:41;4.20;99.90
8178;DHT22;4130;48.740;9.132;2022-11-03T04:44:12;4.10;99.90
8178;DHT22;4130;48.740;9.132;2022-11-03T04:46:41;4.10;99.90
8178;DHT22;4130;48.740;9.132;2022-11-03T04:49:13;4.00;99.90
8178;DHT22;4130;48.740;9.132;2022-11-03T04:51:42;4.00;99.90
8178;DHT22;4130;48.740;9.132;2022-11-03T04:54:12;4.00;99.90
8178;DHT22;4130;48.740;9.132;2022-11-03T04:56:41;3.90;99.90
8178;DHT22;4130;48.740;9.132;2022-11-03T04:59:10;3.90;99.90
8178;DHT22;4130;48.740;9.132;2022-11-03T05:01:37;3.90;99.90
8178;DHT22;4130;48.740;9.132;2022-11-03T05:04:07;3.90;99.90
8178;DHT22;4130;48.740;9.132;2022-11-03T05:06:37;3.90;99.90
8178;DHT22;4130;48.740;9.132;2022-11-03T05:09:10;3.80;99.90
8178;DHT22;4130;48.740;9.132;2022-11-03T05:11:39;3.80;99.90
8178;DHT22;4130;48.740;9.132;2022-11-03T05:14:13;3.80;99.90
8178;DHT22;4130;48.740;9.132;2022-11-03T05:16:41;3.80;99.90
8178;DHT22;4130;48.740;9.132;2022-11-03T05:19:13;3.80;99.90
8178;DHT22;4130;48.740;9.132;2022-11-03T05:21:40;3.80;99.90
8178;DHT22;4130;48.740;9.132;2022-11-03T05:24:10;3.80;99.90
8178;DHT22;4130;48.740;9.132;2022-11-03T05:26:38;3.80;99.90
8178;DHT22;4130;48.740;9.132;2022-11-03T05:29:12;3.80;99.90
8178;DHT22;4130;48.740;9.132;2022-11-03T05:31:40;3.70;99.90
8178;DHT22;4130;48.740;9.132;2022-11-03T05:34:26;3.80;99.90
8178;DHT22;4130;48.740;9.132;2022-11-03T05:36:53;3.80;99.90
8178;DHT22;4130;48.740;9.132;2022-11-03T05:39:28;3.80;99.90
8178;DHT22;4130;48.740;9.132;2022-11-03T05:41:57;3.70;99.90
8178;DHT22;4130;48.740;9.132;2022-11-03T05:44:28;3.70;99.90
8178;DHT22;4130;48.740;9.132;2022-11-03T05:46:58;3.70;99.90
8178;DHT22;4130;48.740;9.132;2022-11-03T05:49:28;3.70;99.90
8178;DHT22;4130;48.740;9.132;2022-11-03T05:51:55;3.70;99.90
8178;DHT22;4130;48.740;9.132;2022-11-03T05:54:23;3.70;99.90
8178;DHT22;4130;48.740;9.132;2022-11-03T05:56:51;3.60;99.90
8178;DHT22;4130;48.740;9.132;2022-11-03T05:59:22;3.60;99.90
8178;DHT22;4130;48.740;9.132;2022-11-03T06:01:50;3.50;99.90
8178;DHT22;4130;48.740;9.132;2022-11-03T06:04:19;3.50;99.90
8178;DHT22;4130;48.740;9.132;2022-11-03T06:06:51;3.40;99.90
8178;DHT22;4130;48.740;9.132;2022-11-03T06:09:21;3.40;99.90
8178;DHT22;4130;48.740;9.132;2022-11-03T06:11:50;3.40;99.90
8178;DHT22;4130;48.740;9.132;2022-11-03T06:14:19;3.30;99.90
8178;DHT22;4130;48.740;9.132;2022-11-03T06:16:49;3.30;99.90
8178;DHT22;4130;48.740;9.132;2022-11-03T06:19:25;3.30;99.90
8178;DHT22;4130;48.740;9.132;2022-11-03T06:21:57;3.30;99.90
8178;DHT22;4130;48.740;9.132;2022-11-03T06:24:27;3.30;99.90
8178;DHT22;4130;48.740;9.132;2022-11-03T06:26:55;3.40;99.90
8178;DHT22;4130;48.740;9.132;2022-11-03T06:29:23;3.40;99.90
8178;DHT22;4130;48.740;9.132;2022-11-03T06:31:53;3.40;99.90
8178;DHT22;4130;48.740;9.132;2022-11-03T06:34:30;3.40;99.90
8178;DHT22;4130;48.740;9.132;2022-11-03T06:37:09;3.50;99.90
8178;DHT22;4130;48.740;9.132;2022-11-03T06:39:36;3.50;99.90
8178;DHT22;4130;48.740;9.132;2022-11-03T06:42:10;3.60;99.90
8178;DHT22;4130;48.740;9.132;2022-11-03T06:44:39;3.70;99.90
8178;DHT22;4130;48.740;9.132;2022-11-03T06:47:17;3.70;99.90
8178;DHT22;4130;48.740;9.132;2022-11-03T06:49:45;3.70;99.90
8178;DHT22;4130;48.740;9.132;2022-11-03T06:52:23;3.80;99.90
8178;DHT22;4130;48.740;9.132;2022-11-03T06:54:54;3.80;99.90
8178;DHT22;4130;48.740;9.132;2022-11-03T06:57:21;3.90;99.90
8178;DHT22;4130;48.740;9.132;2022-11-03T06:59:49;4.00;99.90
8178;DHT22;4130;48.740;9.132;2022-11-03T07:02:35;4.00;99.90
8178;DHT22;4130;48.740;9.132;2022-11-03T07:05:18;4.10;99.90
8178;DHT22;4130;48.740;9.132;2022-11-03T07:07:48;4.20;99.90
8178;DHT22;4130;48.740;9.132;2022-11-03T07:10:15;4.30;99.90
8178;DHT22;4130;48.740;9.132;2022-11-03T07:12:42;4.40;99.90
8178;DHT22;4130;48.740;9.132;2022-11-03T07:15:21;4.60;99.90
8178;DHT22;4130;48.740;9.132;2022-11-03T07:17:49;4.70;99.90
8178;DHT22;4130;48.740;9.132;2022-11-03T07:20:16;4.80;99.90
8178;DHT22;4130;48.740;9.132;2022-11-03T07:22:43;4.90;99.90
8178;DHT22;4130;48.740;9.132;2022-11-03T07:25:16;5.10;99.90
8178;DHT22;4130;48.740;9.132;2022-11-03T07:27:44;5.20;99.90
8178;DHT22;4130;48.740;9.132;2022-11-03T07:30:16;5.30;99.90
8178;DHT22;4130;48.740;9.132;2022-11-03T07:32:44;5.30;99.90
8178;DHT22;4130;48.740;9.132;2022-11-03T07:35:33;5.40;99.90
8178;DHT22;4130;48.740;9.132;2022-11-03T07:38:02;5.60;99.90
8178;DHT22;4130;48.740;9.132;2022-11-03T07:40:32;5.70;99.90
8178;DHT22;4130;48.740;9.132;2022-11-03T07:43:10;5.80;99.90
8178;DHT22;4130;48.740;9.132;2022-11-03T07:45:41;6.00;99.90
8178;DHT22;4130;48.740;9.132;2022-11-03T07:48:20;6.20;99.90
8178;DHT22;4130;48.740;9.132;2022-11-03T07:50:48;6.40;99.90
8178;DHT22;4130;48.740;9.132;2022-11-03T07:53:20;6.60;99.90
8178;DHT22;4130;48.740;9.132;2022-11-03T07:55:49;6.80;99.90
8178;DHT22;4130;48.740;9.132;2022-11-03T07:58:21;7.00;99.90
8178;DHT22;4130;48.740;9.132;2022-11-03T08:00:49;7.10;99.90
8178;DHT22;4130;48.740;9.132;2022-11-03T08:03:29;7.30;99.90
8178;DHT22;4130;48.740;9.132;2022-11-03T08:05:57;7.30;99.90
8178;DHT22;4130;48.740;9.132;2022-11-03T08:08:23;7.50;99.90
8178;DHT22;4130;48.740;9.132;2022-11-03T08:10:51;7.60;99.90
8178;DHT22;4130;48.740;9.132;2022-11-03T08:13:18;7.60;99.90
8178;DHT22;4130;48.740;9.132;2022-11-03T08:15:45;7.70;99.90
8178;DHT22;4130;48.740;9.132;2022-11-03T08:18:12;7.80;99.90
8178;DHT22;4130;48.740;9.132;2022-11-03T08:20:38;7.80;99.90
8178;DHT22;4130;48.740;9.132;2022-11-03T08:23:05;8.00;99.90
8178;DHT22;4130;48.740;9.132;2022-11-03T08:25:32;8.10;99.90
8178;DHT22;4130;48.740;9.132;2022-11-03T08:28:00;8.10;99.90
8178;DHT22;4130;48.740;9.132;2022-11-03T08:30:27;8.20;99.90
8178;DHT22;4130;48.740;9.132;2022-11-03T08:32:54;8.30;99.90
8178;DHT22;4130;48.740;9.132;2022-11-03T08:35:21;8.40;99.90
8178;DHT22;4130;48.740;9.132;2022-11-03T08:37:48;8.50;99.90
8178;DHT22;4130;48.740;9.132;2022-11-03T08:40:15;8.60;99.90
8178;DHT22;4130;48.740;9.132;2022-11-03T08:42:43;8.80;99.90
8178;DHT22;4130;48.740;9.132;2022-11-03T08:45:11;8.90;99.90
8178;DHT22;4130;48.740;9.132;2022-11-03T08:47:38;9.10;99.90
8178;DHT22;4130;48.740;9.132;2022-11-03T08:50:05;9.20;99.90
8178;DHT22;4130;48.740;9.132;2022-11-03T08:52:32;9.40;99.90
8178;DHT22;4130;48.740;9.132;2022-11-03T08:54:59;9.50;99.90
8178;DHT22;4130;48.740;9.132;2022-11-03T08:57:26;9.60;99.90
8178;DHT22;4130;48.740;9.132;2022-11-03T08:59:52;9.60;99.90
8178;DHT22;4130;48.740;9.132;2022-11-03T09:02:22;9.80;99.90
8178;DHT22;4130;48.740;9.132;2022-11-03T09:04:48;9.80;99.90
8178;DHT22;4130;48.740;9.132;2022-11-03T09:07:15;9.80;99.90
8178;DHT22;4130;48.740;9.132;2022-11-03T09:09:42;9.80;99.90
8178;DHT22;4130;48.740;9.132;2022-11-03T09:12:08;9.90;99.90
8178;DHT22;4130;48.740;9.132;2022-11-03T09:14:35;10.00;99.90
8178;DHT22;4130;48.740;9.132;2022-11-03T09:17:02;10.20;99.90
8178;DHT22;4130;48.740;9.132;2022-11-03T09:19:30;10.30;99.90
8178;DHT22;4130;48.740;9.132;2022-11-03T09:21:57;10.40;99.90
8178;DHT22;4130;48.740;9.132;2022-11-03T09:24:24;10.60;99.90
8178;DHT22;4130;48.740;9.132;2022-11-03T09:26:51;10.70;99.90
8178;DHT22;4130;48.740;9.132;2022-11-03T09:29:18;10.80;99.90
8178;DHT22;4130;48.740;9.132;2022-11-03T09:31:45;10.80;99.90
8178;DHT22;4130;48.740;9.132;2022-11-03T09:34:12;11.00;99.90
8178;DHT22;4130;48.740;9.132;2022-11-03T09:36:40;11.00;99.90
8178;DHT22;4130;48.740;9.132;2022-11-03T09:39:07;11.10;99.90
8178;DHT22;4130;48.740;9.132;2022-11-03T09:41:34;11.30;99.90
8178;DHT22;4130;48.740;9.132;2022-11-03T09:44:01;11.40;99.90
8178;DHT22;4130;48.740;9.132;2022-11-03T09:46:28;11.40;99.90
8178;DHT22;4130;48.740;9.132;2022-11-03T09:48:56;11.50;99.90
8178;DHT22;4130;48.740;9.132;2022-11-03T09:51:24;11.40;99.90
8178;DHT22;4130;48.740;9.132;2022-11-03T09:53:55;11.60;99.90
8178;DHT22;4130;48.740;9.132;2022-11-03T09:56:24;11.60;99.90
8178;DHT22;4130;48.740;9.132;2022-11-03T09:58:51;11.60;99.90
8178;DHT22;4130;48.740;9.132;2022-11-03T10:01:18;11.70;99.90
8178;DHT22;4130;48.740;9.132;2022-11-03T10:03:45;11.70;99.90
8178;DHT22;4130;48.740;9.132;2022-11-03T10:06:11;11.90;99.90
8178;DHT22;4130;48.740;9.132;2022-11-03T10:08:39;12.00;99.90
8178;DHT22;4130;48.740;9.132;2022-11-03T10:11:08;12.00;99.90
8178;DHT22;4130;48.740;9.132;2022-11-03T10:13:37;12.10;99.90
8178;DHT22;4130;48.740;9.132;2022-11-03T10:16:06;12.10;99.90
8178;DHT22;4130;48.740;9.132;2022-11-03T10:18:34;12.20;99.90
8178;DHT22;4130;48.740;9.132;2022-11-03T10:21:04;12.30;99.90
8178;DHT22;4130;48.740;9.132;2022-11-03T10:23:31;12.30;99.90
8178;DHT22;4130;48.740;9.132;2022-11-03T10:26:08;12.30;99.90
8178;DHT22;4130;48.740;9.132;2022-11-03T10:28:37;12.40;99.90
8178;DHT22;4130;48.740;9.132;2022-11-03T10:31:05;12.50;99.90
8178;DHT22;4130;48.740;9.132;2022-11-03T10:33:34;12.60;99.90
8178;DHT22;4130;48.740;9.132;2022-11-03T10:36:03;12.60;99.90
8178;DHT22;4130;48.740;9.132;2022-11-03T10:38:31;12.60;99.90
8178;DHT22;4130;48.740;9.132;2022-11-03T10:41:13;12.50;99.90
8178;DHT22;4130;48.740;9.132;2022-11-03T10:43:42;12.60;99.90
8178;DHT22;4130;48.740;9.132;2022-11-03T10:46:11;12.50;99.90
8178;DHT22;4130;48.740;9.132;2022-11-03T10:48:38;12.60;99.90
8178;DHT22;4130;48.740;9.132;2022-11-03T10:51:11;12.70;99.90
8178;DHT22;4130;48.740;9.132;2022-11-03T10:53:40;12.80;99.90
8178;DHT22;4130;48.740;9.132;2022-11-03T10:56:07;12.70;99.90
8178;DHT22;4130;48.740;9.132;2022-11-03T10:58:36;12.90;99.90
8178;DHT22;4130;48.740;9.132;2022-11-03T11:01:04;13.00;99.90
8178;DHT22;4130;48.740;9.132;2022-11-03T11:03:33;13.10;99.90
8178;DHT22;4130;48.740;9.132;2022-11-03T11:06:00;13.10;99.90
8178;DHT22;4130;48.740;9.132;2022-11-03T11:08:27;13.30;99.90
8178;DHT22;4130;48.740;9.132;2022-11-03T11:10:54;13.40;99.90
8178;DHT22;4130;48.740;9.132;2022-11-03T11:13:26;13.40;99.90
8178;DHT22;4130;48.740;9.132;2022-11-03T11:15:55;13.40;99.90
8178;DHT22;4130;48.740;9.132;2022-11-03T11:21:59;13.50;99.90
8178;DHT22;4130;48.740;9.132;2022-11-03T11:24:54;13.50;99.90
8178;DHT22;4130;48.740;9.132;2022-11-03T11:31:25;13.40;99.90
8178;DHT22;4130;48.740;9.132;2022-11-03T11:37:35;13.50;99.90
8178;DHT22;4130;48.740;9.132;2022-11-03T11:40:10;13.60;99.90
8178;DHT22;4130;48.740;9.132;2022-11-03T11:43:24;13.60;99.90
8178;DHT22;4130;48.740;9.132;2022-11-03T11:46:33;13.70;99.90
8178;DHT22;4130;48.740;9.132;2022-11-03T11:49:17;13.80;99.90
8178;DHT22;4130;48.740;9.132;2022-11-03T11:51:44;13.80;99.90
8178;DHT22;4130;48.740;9.132;2022-11-03T11:54:14;13.90;99.90
8178;DHT22;4130;48.740;9.132;2022-11-03T11:56:43;13.90;99.90
8178;DHT22;4130;48.740;9.132;2022-11-03T11:59:16;13.90;99.90
8178;DHT22;4130;48.740;9.132;2022-11-03T12:01:48;13.90;99.90
8178;DHT22;4130;48.740;9.132;2022-11-03T12:04:19;13.80;99.90
8178;DHT22;4130;48.740;9.132;2022-11-03T12:06:47;13.80;99.90
8178;DHT22;4130;48.740;9.132;2022-11-03T12:09:17;13.80;99.90
8178;DHT22;4130;48.740;9.132;2022-11-03T12:11:46;13.70;99.90
8178;DHT22;4130;48.740;9.132;2022-11-03T12:14:24;13.80;99.90
8178;DHT22;4130;48.740;9.132;2022-11-03T12:16:51;13.80;99.90
8178;DHT22;4130;48.740;9.132;2022-11-03T12:19:37;13.80;99.90
8178;DHT22;4130;48.740;9.132;2022-11-03T12:22:05;13.80;99.90
8178;DHT22;4130;48.740;9.132;2022-11-03T12:24:37;13.90;99.90
8178;DHT22;4130;48.740;9.132;2022-11-03T12:27:38;13.80;99.90
8178;DHT22;4130;48.740;9.132;2022-11-03T12:30:11;13.70;99.90
8178;DHT22;4130;48.740;9.132;2022-11-03T12:32:39;13.70;99.90
8178;DHT22;4130;48.740;9.132;2022-11-03T12:35:07;13.60;99.90
8178;DHT22;4130;48.740;9.132;2022-11-03T12:37:34;13.50;99.90
8178;DHT22;4130;48.740;9.132;2022-11-03T12:40:04;13.40;99.90
8178;DHT22;4130;48.740;9.132;2022-11-03T12:42:31;13.30;99.90
8178;DHT22;4130;48.740;9.132;2022-11-03T12:44:57;13.30;99.90
8178;DHT22;4130;48.740;9.132;2022-11-03T12:47:24;13.30;99.90
8178;DHT22;4130;48.740;9.132;2022-11-03T12:49:51;13.30;99.90
8178;DHT22;4130;48.740;9.132;2022-11-03T12:52:18;13.20;99.90
8178;DHT22;4130;48.740;9.132;2022-11-03T12:54:45;13.40;99.90
8178;DHT22;4130;48.740;9.132;2022-11-03T12:57:13;13.40;99.90
8178;DHT22;4130;48.740;9.132;2022-11-03T12:59:39;13.30;99.90
8178;DHT22;4130;48.740;9.132;2022-11-03T13:02:07;13.30;99.90
8178;DHT22;4130;48.740;9.132;2022-11-03T13:04:35;13.30;99.90
8178;DHT22;4130;48.740;9.132;2022-11-03T13:07:02;13.30;99.90
8178;DHT22;4130;48.740;9.132;2022-11-03T13:09:28;13.30;99.90
8178;DHT22;4130;48.740;9.132;2022-11-03T13:11:55;13.20;99.90
8178;DHT22;4130;48.740;9.132;2022-11-03T13:14:41;13.20;99.90
8178;DHT22;4130;48.740;9.132;2022-11-03T13:17:07;13.20;99.90
8178;DHT22;4130;48.740;9.132;2022-11-03T13:19:34;13.20;99.90
8178;DHT22;4130;48.740;9.132;2022-11-03T13:22:01;13.20;99.90
8178;DHT22;4130;48.740;9.132;2022-11-03T13:24:28;13.30;99.90
8178;DHT22;4130;48.740;9.132;2022-11-03T13:26:54;13.30;99.90
8178;DHT22;4130;48.740;9.132;2022-11-03T13:29:21;13.40;99.90
8178;DHT22;4130;48.740;9.132;2022-11-03T13:31:49;13.30;99.90
8178;DHT22;4130;48.740;9.132;2022-11-03T13:34:16;13.20;99.90
8178;DHT22;4130;48.740;9.132;2022-11-03T13:36:43;13.20;99.90
8178;DHT22;4130;48.740;9.132;2022-11-03T13:39:10;13.20;99.90
8178;DHT22;4130;48.740;9.132;2022-11-03T13:41:37;13.30;99.90
8178;DHT22;4130;48.740;9.132;2022-11-03T13:44:04;13.20;99.90
8178;DHT22;4130;48.740;9.132;2022-11-03T13:46:30;13.20;99.90
8178;DHT22;4130;48.740;9.132;2022-11-03T13:48:58;13.30;99.90
8178;DHT22;4130;48.740;9.132;2022-11-03T13:51:25;13.30;99.90
8178;DHT22;4130;48.740;9.132;2022-11-03T13:53:52;13.20;99.90
8178;DHT22;4130;48.740;9.132;2022-11-03T13:56:19;13.30;99.90
8178;DHT22;4130;48.740;9.132;2022-11-03T13:58:45;13.20;99.90
8178;DHT22;4130;48.740;9.132;2022-11-03T14:01:12;13.10;99.90
8178;DHT22;4130;48.740;9.132;2022-11-03T14:03:39;13.20;99.90
8178;DHT22;4130;48.740;9.132;2022-11-03T14:06:08;13.10;99.90
8178;DHT22;4130;48.740;9.132;2022-11-03T14:08:34;13.00;99.90
8178;DHT22;4130;48.740;9.132;2022-11-03T14:11:01;12.90;99.90
8178;DHT22;4130;48.740;9.132;2022-11-03T14:13:48;12.90;99.90
8178;DHT22;4130;48.740;9.132;2022-11-03T14:16:14;12.80;99.90
8178;DHT22;4130;48.740;9.132;2022-11-03T14:18:41;12.70;99.90
8178;DHT22;4130;48.740;9.132;2022-11-03T14:21:09;12.60;99.90
8178;DHT22;4130;48.740;9.132;2022-11-03T14:23:36;12.60;99.90
8178;DHT22;4130;48.740;9.132;2022-11-03T14:26:03;12.60;99.90
8178;DHT22;4130;48.740;9.132;2022-11-03T14:28:30;12.60;99.90
8178;DHT22;4130;48.740;9.132;2022-11-03T14:30:56;12.50;99.90
8178;DHT22;4130;48.740;9.132;2022-11-03T14:33:25;12.60;99.90
8178;DHT22;4130;48.740;9.132;2022-11-03T14:35:52;12.60;99.90
8178;DHT22;4130;48.740;9.132;2022-11-03T14:38:20;12.50;99.90
8178;DHT22;4130;48.740;9.132;2022-11-03T14:40:47;12.50;99.90
8178;DHT22;4130;48.740;9.132;2022-11-03T14:43:31;12.40;99.90
8178;DHT22;4130;48.740;9.132;2022-11-03T14:45:59;12.40;99.90
8178;DHT22;4130;48.740;9.132;2022-11-03T14:48:25;12.10;99.90
8178;DHT22;4130;48.740;9.132;2022-11-03T14:50:52;12.20;99.90
8178;DHT22;4130;48.740;9.132;2022-11-03T14:53:20;12.10;99.90
8178;DHT22;4130;48.740;9.132;2022-11-03T14:55:47;11.90;99.90
8178;DHT22;4130;48.740;9.132;2022-11-03T14:58:14;12.00;99.90
8178;DHT22;4130;48.740;9.132;2022-11-03T15:00:40;11.90;99.90
8178;DHT22;4130;48.740;9.132;2022-11-03T15:03:07;11.90;99.90
8178;DHT22;4130;48.740;9.132;2022-11-03T15:05:34;11.80;99.90
8178;DHT22;4130;48.740;9.132;2022-11-03T15:08:10;11.80;99.90
8178;DHT22;4130;48.740;9.132;2022-11-03T15:10:38;11.70;99.90
8178;DHT22;4130;48.740;9.132;2022-11-03T15:13:05;11.70;99.90
8178;DHT22;4130;48.740;9.132;2022-11-03T15:15:32;11.60;99.90
8178;DHT22;4130;48.740;9.132;2022-11-03T15:18:00;11.50;99.90
8178;DHT22;4130;48.740;9.132;2022-11-03T15:20:26;11.50;99.90
8178;DHT22;4130;48.740;9.132;2022-11-03T15:22:53;11.40;99.90
8178;DHT22;4130;48.740;9.132;2022-11-03T15:25:20;11.40;99.90
8178;DHT22;4130;48.740;9.132;2022-11-03T15:27:48;11.40;99.90
8178;DHT22;4130;48.740;9.132;2022-11-03T15:30:15;11.30;99.90
8178;DHT22;4130;48.740;9.132;2022-11-03T15:32:42;11.30;99.90
8178;DHT22;4130;48.740;9.132;2022-11-03T15:35:08;11.20;99.90
8178;DHT22;4130;48.740;9.132;2022-11-03T15:37:35;11.30;99.90
8178;DHT22;4130;48.740;9.132;2022-11-03T15:40:03;11.10;99.90
8178;DHT22;4130;48.740;9.132;2022-11-03T15:42:30;11.10;99.90
8178;DHT22;4130;48.740;9.132;2022-11-03T15:44:58;11.00;99.90
8178;DHT22;4130;48.740;9.132;2022-11-03T15:47:24;10.90;99.90
8178;DHT22;4130;48.740;9.132;2022-11-03T15:49:51;10.90;99.90
8178;DHT22;4130;48.740;9.132;2022-11-03T15:52:18;10.90;99.90
8178;DHT22;4130;48.740;9.132;2022-11-03T15:54:45;10.80;99.90
8178;DHT22;4130;48.740;9.132;2022-11-03T15:57:13;10.80;99.90
8178;DHT22;4130;48.740;9.132;2022-11-03T15:59:40;10.70;99.90
8178;DHT22;4130;48.740;9.132;2022-11-03T16:02:08;10.70;99.90
8178;DHT22;4130;48.740;9.132;2022-11-03T16:04:35;10.60;99.90
8178;DHT22;4130;48.740;9.132;2022-11-03T16:07:02;10.60;99.90
8178;DHT22;4130;48.740;9.132;2022-11-03T16:09:28;10.60;99.90
8178;DHT22;4130;48.740;9.132;2022-11-03T16:11:55;10.60;99.90
8178;DHT22;4130;48.740;9.132;2022-11-03T16:14:22;10.40;99.90
8178;DHT22;4130;48.740;9.132;2022-11-03T16:16:48;10.60;99.90
8178;DHT22;4130;48.740;9.132;2022-11-03T16:19:16;10.40;99.90
8178;DHT22;4130;48.740;9.132;2022-11-03T16:21:43;10.40;99.90
8178;DHT22;4130;48.740;9.132;2022-11-03T16:24:10;10.50;99.90
8178;DHT22;4130;48.740;9.132;2022-11-03T16:26:36;10.50;99.90
8178;DHT22;4130;48.740;9.132;2022-11-03T16:29:03;10.60;99.90
8178;DHT22;4130;48.740;9.132;2022-11-03T16:31:30;10.60;99.90
8178;DHT22;4130;48.740;9.132;2022-11-03T16:33:57;10.70;99.90
8178;DHT22;4130;48.740;9.132;2022-11-03T16:36:25;10.70;99.90